Michael Mccreery — WDF2469 — position and weather

sailwx.info

Track history (hours):
 
Tides and Currents Weather Stations Pressure Air Temp Water Temp Dewpoint Dewpoint Depression Visibility Wind Speed Wind Dir Waves Ship Positions

Michael Mccreery

Owner: Kirby Inland Marine, LP, Houston, TX. More information available from US FCC via Universal Licensing System and Coast Guard Vessel Documentation Center.

Last reported at 2018-Apr-26 03:28 UTC. Time now 2018-Apr-26 03:30 UTC.
Position N 30°08' W 093°19'.

MMSI: 366986392.

Date/timePositionNaut miles runAvg speedWind from/ knotsBaromVisibWave heightAir tempDewpointWater temp
2018-Apr-26 03:28N 30°08' W 093°19'0 0.0
2018-Apr-26 02:58N 30°08' W 093°19'0 0.0
2018-Apr-26 02:28N 30°08' W 093°19'0 0.0
2018-Apr-26 01:58N 30°08' W 093°19'0 0.0
2018-Apr-26 01:28N 30°08' W 093°19'0 0.0
2018-Apr-26 00:58N 30°08' W 093°19'0 0.0
2018-Apr-26 00:28N 30°08' W 093°19'0 0.0
2018-Apr-25 23:58N 30°08' W 093°19'0 0.0
2018-Apr-25 23:28N 30°08' W 093°19'0 0.0
2018-Apr-25 22:58N 30°08' W 093°19'0 0.0
2018-Apr-25 22:28N 30°08' W 093°19'0 0.0
2018-Apr-25 21:58N 30°08' W 093°19'0 0.0
2018-Apr-25 21:28N 30°08' W 093°19'0 0.0
2018-Apr-25 20:58N 30°08' W 093°19'0 0.0
2018-Apr-25 19:55N 30°08' W 093°19'0 0.0
2018-Apr-25 19:25N 30°08' W 093°19'0 0.0
2018-Apr-25 18:58N 30°08' W 093°19'0 0.0
2018-Apr-25 18:28N 30°08' W 093°19'0 0.0
2018-Apr-25 17:58N 30°08' W 093°19'0 0.0
2018-Apr-25 17:28N 30°08' W 093°19'0 0.0
2018-Apr-25 16:59N 30°08' W 093°19'0 0.1
2018-Apr-25 16:30N 30°08' W 093°19'0 0.0
2018-Apr-25 16:00N 30°08' W 093°19'2 3.3
2018-Apr-25 15:30N 30°07' W 093°20'2 4.3
2018-Apr-25 15:00N 30°05' W 093°20'2 3.8
2018-Apr-25 14:30N 30°04' W 093°22'0 0.0
2018-Apr-25 14:00N 30°04' W 093°22'0 0.0
2018-Apr-25 13:30N 30°04' W 093°22'0 0.0
2018-Apr-25 13:00N 30°04' W 093°22'0 0.0
2018-Apr-25 12:30N 30°04' W 093°22'0 0.0
2018-Apr-25 12:00N 30°04' W 093°22'0 0.0
2018-Apr-25 11:30N 30°04' W 093°22'0 0.0
2018-Apr-25 11:00N 30°04' W 093°22'0 0.0
2018-Apr-25 10:31N 30°04' W 093°22'1 2.2
2018-Apr-25 10:00N 30°04' W 093°24'3 6.3
2018-Apr-25 09:30N 30°04' W 093°27'2 4.5
2018-Apr-25 09:00N 30°04' W 093°30'1 2.6
2018-Apr-25 08:30N 30°04' W 093°31'3 6.0
2018-Apr-25 08:01N 30°04' W 093°35'3 5.8
2018-Apr-25 07:30N 30°03' W 093°38'2 4.9
2018-Apr-25 07:00N 30°04' W 093°41'2 4.0
2018-Apr-25 06:30N 30°03' W 093°43'3 5.7
2018-Apr-25 06:00N 30°01' W 093°45'3 6.2
2018-Apr-25 05:30N 29°59' W 093°48'3 5.4
2018-Apr-25 05:00N 29°58' W 093°51'0 0.1
2018-Apr-25 04:31N 29°58' W 093°51'1 1.6
2018-Apr-25 04:00N 29°58' W 093°51'0 0.0
2018-Apr-25 03:30N 29°58' W 093°51'0 0.1
2018-Apr-25 03:00N 29°58' W 093°51'0 0.1
2018-Apr-25 02:30N 29°58' W 093°51'0 0.0
2018-Apr-25 02:00N 29°58' W 093°51'0 0.0
2018-Apr-25 01:29N 29°58' W 093°51'1 1.7
2018-Apr-25 00:59N 29°58' W 093°51'0 0.0
2018-Apr-25 00:29N 29°58' W 093°51'0 0.0
2018-Apr-24 23:59N 29°58' W 093°51'0 0.0
2018-Apr-24 23:29N 29°58' W 093°51'0 0.0
2018-Apr-24 22:59N 29°58' W 093°51'0 0.0
2018-Apr-24 22:29N 29°58' W 093°51'0 0.0
2018-Apr-24 21:59N 29°58' W 093°51'0 0.0
2018-Apr-24 21:26N 29°58' W 093°51'0 0.0
2018-Apr-24 20:59N 29°58' W 093°51'0 0.0
2018-Apr-24 20:29N 29°58' W 093°51'0 0.0
2018-Apr-24 19:59N 29°58' W 093°51'0 0.0
2018-Apr-24 19:29N 29°58' W 093°51'0 0.0
2018-Apr-24 18:59N 29°58' W 093°51'0 0.0
2018-Apr-24 18:29N 29°58' W 093°51'0 0.3
2018-Apr-24 18:00N 29°58' W 093°51'0 0.3
2018-Apr-24 17:28N 29°58' W 093°51'0 0.0
2018-Apr-24 16:58N 29°58' W 093°51'0 0.0
2018-Apr-24 16:28N 29°58' W 093°51'0 0.0
2018-Apr-24 15:59N 29°58' W 093°51'0 0.0
2018-Apr-24 15:29N 29°58' W 093°51'0 0.2
2018-Apr-24 14:58N 29°58' W 093°51'0 0.3
2018-Apr-24 14:30N 29°58' W 093°51'0 0.0
2018-Apr-24 14:00N 29°58' W 093°51'0 0.0
2018-Apr-24 13:30N 29°58' W 093°51'0 0.0
2018-Apr-24 13:00N 29°58' W 093°51'0 0.0
2018-Apr-24 12:30N 29°58' W 093°51'0 0.0
2018-Apr-24 11:58N 29°58' W 093°51'0 0.0
2018-Apr-24 11:28N 29°58' W 093°51'0 0.0
2018-Apr-24 10:58N 29°58' W 093°51'0 0.0
2018-Apr-24 10:28N 29°58' W 093°51'0 0.0
2018-Apr-24 09:58N 29°58' W 093°51'0 0.0
2018-Apr-24 09:28N 29°58' W 093°51'0 0.0
2018-Apr-24 08:58N 29°58' W 093°51'0 0.0
2018-Apr-24 08:28N 29°58' W 093°51'0 0.0
2018-Apr-24 07:58N 29°58' W 093°51'0 0.0
2018-Apr-24 07:28N 29°58' W 093°51'0 0.0
2018-Apr-24 06:58N 29°58' W 093°51'0 0.0
2018-Apr-24 06:28N 29°58' W 093°51'0 0.0
2018-Apr-24 05:58N 29°58' W 093°51'0 0.0
2018-Apr-24 05:28N 29°58' W 093°51'0 0.0
2018-Apr-24 04:58N 29°58' W 093°51'0 0.0
2018-Apr-24 04:28N 29°58' W 093°51'0 0.0
2018-Apr-24 03:58N 29°58' W 093°51'0 0.0
2018-Apr-24 03:28N 29°58' W 093°51'0 0.0
2018-Apr-24 02:58N 29°58' W 093°51'0 0.0
2018-Apr-24 02:28N 29°58' W 093°51'0 0.0
2018-Apr-24 01:58N 29°58' W 093°51'0 0.0
2018-Apr-24 01:28N 29°58' W 093°51'0 0.0
2018-Apr-24 00:58N 29°58' W 093°51'0 0.8
2018-Apr-24 00:30N 29°58' W 093°51'0 0.6
2018-Apr-24 00:00N 29°58' W 093°51'0 0.0
2018-Apr-23 23:30N 29°58' W 093°51'0 0.0
2018-Apr-23 23:00N 29°58' W 093°51'0 0.0
2018-Apr-23 22:24N 29°58' W 093°51'0 0.5
2018-Apr-23 22:00N 29°58' W 093°51'0 0.2
2018-Apr-23 21:30N 29°58' W 093°51'0 0.0
2018-Apr-23 21:00N 29°58' W 093°51'0 0.0
2018-Apr-23 20:30N 29°58' W 093°51'2 4.6
2018-Apr-23 20:00N 29°56' W 093°52'5 9.1
2018-Apr-23 19:30N 29°53' W 093°56'4 7.4
2018-Apr-23 19:00N 29°49' W 093°58'2 4.6
2018-Apr-23 18:30N 29°48' W 094°00'2 4.9
2018-Apr-23 18:00N 29°47' W 094°02'3 6.3
2018-Apr-23 17:30N 29°45' W 094°05'3 6.2
2018-Apr-23 17:00N 29°43' W 094°08'3 6.0
2018-Apr-23 16:30N 29°41' W 094°11'3 5.3
2018-Apr-23 16:00N 29°40' W 094°14'3 6.3
2018-Apr-23 15:30N 29°39' W 094°17'3 6.0
2018-Apr-23 14:57N 29°37' W 094°20'3 6.3
2018-Apr-23 14:30N 29°36' W 094°23'2 4.6
2018-Apr-23 14:00N 29°34' W 094°25'3 6.3
2018-Apr-23 13:30N 29°33' W 094°28'3 6.0
2018-Apr-23 13:00N 29°31' W 094°31'1 2.0
2018-Apr-23 12:29N 29°31' W 094°32'11 1.9
2018-Apr-23 06:58N 29°26' W 094°43'0 0.0
2018-Apr-23 06:28N 29°26' W 094°43'0 0.0
2018-Apr-23 06:00N 29°26' W 094°43'0 0.0
2018-Apr-23 05:30N 29°26' W 094°43'0 0.7
2018-Apr-23 05:00N 29°25' W 094°43'6 3.1
2018-Apr-23 02:59N 29°26' W 094°50'4 8.2
2018-Apr-23 02:30N 29°30' W 094°52'4 8.1
2018-Apr-23 02:00N 29°33' W 094°55'4 7.7
2018-Apr-23 01:30N 29°36' W 094°57'4 7.1
2018-Apr-23 01:00N 29°40' W 094°59'3 6.4
2018-Apr-23 00:30N 29°42' W 095°01'4 7.5
2018-Apr-23 00:00N 29°45' W 095°04'2 1.7
2018-Apr-22 22:36N 29°47' W 095°04'0 2.5
2018-Apr-22 22:25N 29°47' W 095°04'3 6.1
2018-Apr-22 22:00N 29°45' W 095°06'3 6.9
2018-Apr-22 21:30N 29°45' W 095°10'1 0.0
2018-Apr-22 03:25N 29°45' W 095°11'6 0.6
2018-Apr-21 17:08N 29°47' W 095°04'1 7.4
2018-Apr-21 16:59N 29°46' W 095°05'0 0.6
2018-Apr-21 16:30N 29°46' W 095°04'1 0.0
2018-Apr-20 00:05N 29°47' W 095°04'0 0.6
2018-Apr-19 23:41N 29°47' W 095°04'0 0.0
2018-Apr-19 23:29N 29°47' W 095°04'0 0.1
2018-Apr-19 21:46N 29°47' W 095°04'0 0.2
2018-Apr-19 20:53N 29°47' W 095°04'3 6.2
2018-Apr-19 20:25N 29°44' W 095°03'2 2.4
2018-Apr-19 19:39N 29°44' W 095°01'1 5.6
2018-Apr-19 19:27N 29°44' W 095°03'3 7.3
2018-Apr-19 19:00N 29°47' W 095°05'1 0.1
2018-Apr-19 14:04N 29°47' W 095°04'0 0.0
2018-Apr-18 20:19N 29°47' W 095°04'0 0.1
2018-Apr-18 15:08N 29°47' W 095°04'0 0.0
2018-Apr-18 07:07N 29°47' W 095°04'0 0.0
2018-Apr-18 06:39N 29°47' W 095°04'0 0.0
2018-Apr-18 05:01N 29°47' W 095°04'0 0.2
2018-Apr-18 05:00N 29°47' W 095°04'0 0.0
2018-Apr-18 04:27N 29°47' W 095°04'1 1.9
2018-Apr-18 03:52N 29°46' W 095°05'1 3.8
2018-Apr-18 03:30N 29°46' W 095°06'2 4.1
2018-Apr-18 02:59N 29°45' W 095°04'1 2.9
2018-Apr-18 02:30N 29°47' W 095°05'0 0.4
2018-Apr-18 02:00N 29°47' W 095°04'0 0.7
2018-Apr-18 01:29N 29°47' W 095°04'0 0.1
2018-Apr-17 23:06N 29°47' W 095°04'0 0.3
2018-Apr-17 22:51N 29°47' W 095°04'0 0.1
2018-Apr-17 22:27N 29°47' W 095°04'1 1.2
2018-Apr-17 21:54N 29°46' W 095°05'0 0.0
2018-Apr-17 21:30N 29°46' W 095°05'1 1.8
2018-Apr-17 20:59N 29°45' W 095°04'1 3.0
2018-Apr-17 20:30N 29°44' W 095°03'2 3.9
2018-Apr-17 19:57N 29°43' W 095°01'2 5.3
2018-Apr-17 19:30N 29°41' W 094°59'3 6.1
2018-Apr-17 19:00N 29°39' W 094°58'3 6.2
2018-Apr-17 18:30N 29°36' W 094°57'3 6.5
2018-Apr-17 18:00N 29°33' W 094°54'3 5.7
2018-Apr-17 17:30N 29°31' W 094°53'11 3.6
2018-Apr-17 14:24N 29°27' W 094°40'2 5.2
2018-Apr-17 14:00N 29°28' W 094°38'3 5.2
2018-Apr-17 13:23N 29°29' W 094°35'2 4.8
2018-Apr-17 12:58N 29°30' W 094°33'2 4.6
2018-Apr-17 12:28N 29°31' W 094°30'4 4.1
2018-Apr-17 11:35N 29°34' W 094°27'0 4.8
2018-Apr-17 11:29N 29°34' W 094°27'2 3.2
2018-Apr-17 10:53N 29°35' W 094°25'1 3.1
2018-Apr-17 10:27N 29°36' W 094°24'2 2.8
2018-Apr-17 09:47N 29°36' W 094°22'0 0.5
2018-Apr-17 09:18N 29°36' W 094°22'1 4.4
2018-Apr-17 09:00N 29°37' W 094°20'2 4.6
2018-Apr-17 08:30N 29°38' W 094°18'2 4.5
2018-Apr-17 08:00N 29°39' W 094°16'2 4.4
2018-Apr-17 07:30N 29°40' W 094°14'2 4.4
2018-Apr-17 07:00N 29°41' W 094°11'2 4.5
2018-Apr-17 06:30N 29°42' W 094°09'3 5.0
2018-Apr-17 06:00N 29°43' W 094°07'2 4.9
2018-Apr-17 05:30N 29°45' W 094°04'2 4.7
2018-Apr-17 05:00N 29°46' W 094°02'2 3.8
2018-Apr-17 04:30N 29°48' W 094°01'2 4.5
2018-Apr-17 04:00N 29°49' W 093°59'2 4.7
2018-Apr-17 03:30N 29°51' W 093°57'3 6.3
2018-Apr-17 03:00N 29°53' W 093°55'3 6.7
2018-Apr-17 02:30N 29°56' W 093°52'3 5.3
2018-Apr-17 02:00N 29°58' W 093°51'2 3.2
2018-Apr-17 01:30N 29°59' W 093°49'2 4.8
2018-Apr-17 01:00N 29°60' W 093°47'3 5.7
2018-Apr-17 00:30N 30°02' W 093°44'3 5.3
2018-Apr-17 00:00N 30°03' W 093°42'3 5.2
2018-Apr-16 23:28N 30°04' W 093°39'3 4.6
2018-Apr-16 22:45N 30°04' W 093°35'1 4.3
2018-Apr-16 22:30N 30°04' W 093°34'2 4.3
2018-Apr-16 22:00N 30°04' W 093°31'2 4.2
2018-Apr-16 21:30N 30°04' W 093°29'2 4.6
2018-Apr-16 21:00N 30°04' W 093°26'2 4.5
2018-Apr-16 20:30N 30°04' W 093°23'2 3.9
2018-Apr-16 20:00N 30°04' W 093°21'2 3.6
2018-Apr-16 19:30N 30°05' W 093°20'2 3.5
2018-Apr-16 19:00N 30°05' W 093°18'1 1.3
2018-Apr-16 18:30N 30°05' W 093°17'1 2.1
2018-Apr-16 18:00N 30°04' W 093°16'0 0.1
2018-Apr-16 17:30N 30°04' W 093°16'1 1.3
2018-Apr-16 17:00N 30°04' W 093°16'2 3.0
2018-Apr-16 16:30N 30°02' W 093°16'2 3.2
2018-Apr-16 16:00N 30°01' W 093°14'2 4.3
2018-Apr-16 15:30N 29°60' W 093°13'2 4.8
2018-Apr-16 15:00N 29°58' W 093°11'2 4.7
2018-Apr-16 14:30N 29°56' W 093°09'4 4.9
2018-Apr-16 13:43N 29°56' W 093°05'1 3.1
2018-Apr-16 13:30N 29°56' W 093°04'2 3.7
2018-Apr-16 12:59N 29°56' W 093°02'2 5.1
2018-Apr-16 12:30N 29°56' W 092°59'  
Track history (hours):
 
Tides and Currents Weather Stations Pressure Air Temp Water Temp Dewpoint Dewpoint Depression Visibility Wind Speed Wind Dir Waves Ship Positions

Michael Mccreery

Owner: Kirby Inland Marine, LP, Houston, TX. More information available from US FCC via Universal Licensing System and Coast Guard Vessel Documentation Center.

Last reported at 2018-Apr-26 03:28 UTC. Time now 2018-Apr-26 03:30 UTC.
Position N 30°08' W 093°19'.

MMSI: 366986392.

Date/timePositionNaut miles runAvg speedWind from/ knotsBaromVisibWave heightAir tempDewpointWater temp
2018-Apr-26 03:28N 30°08' W 093°19'0 0.0
2018-Apr-26 02:58N 30°08' W 093°19'0 0.0
2018-Apr-26 02:28N 30°08' W 093°19'0 0.0
2018-Apr-26 01:58N 30°08' W 093°19'0 0.0
2018-Apr-26 01:28N 30°08' W 093°19'0 0.0
2018-Apr-26 00:58N 30°08' W 093°19'0 0.0
2018-Apr-26 00:28N 30°08' W 093°19'0 0.0
2018-Apr-25 23:58N 30°08' W 093°19'0 0.0
2018-Apr-25 23:28N 30°08' W 093°19'0 0.0
2018-Apr-25 22:58N 30°08' W 093°19'0 0.0
2018-Apr-25 22:28N 30°08' W 093°19'0 0.0
2018-Apr-25 21:58N 30°08' W 093°19'0 0.0
2018-Apr-25 21:28N 30°08' W 093°19'0 0.0
2018-Apr-25 20:58N 30°08' W 093°19'0 0.0
2018-Apr-25 19:55N 30°08' W 093°19'0 0.0
2018-Apr-25 19:25N 30°08' W 093°19'0 0.0
2018-Apr-25 18:58N 30°08' W 093°19'0 0.0
2018-Apr-25 18:28N 30°08' W 093°19'0 0.0
2018-Apr-25 17:58N 30°08' W 093°19'0 0.0
2018-Apr-25 17:28N 30°08' W 093°19'0 0.0
2018-Apr-25 16:59N 30°08' W 093°19'0 0.1
2018-Apr-25 16:30N 30°08' W 093°19'0 0.0
2018-Apr-25 16:00N 30°08' W 093°19'2 3.3
2018-Apr-25 15:30N 30°07' W 093°20'2 4.3
2018-Apr-25 15:00N 30°05' W 093°20'2 3.8
2018-Apr-25 14:30N 30°04' W 093°22'0 0.0
2018-Apr-25 14:00N 30°04' W 093°22'0 0.0
2018-Apr-25 13:30N 30°04' W 093°22'0 0.0
2018-Apr-25 13:00N 30°04' W 093°22'0 0.0
2018-Apr-25 12:30N 30°04' W 093°22'0 0.0
2018-Apr-25 12:00N 30°04' W 093°22'0 0.0
2018-Apr-25 11:30N 30°04' W 093°22'0 0.0
2018-Apr-25 11:00N 30°04' W 093°22'0 0.0
2018-Apr-25 10:31N 30°04' W 093°22'1 2.2
2018-Apr-25 10:00N 30°04' W 093°24'3 6.3
2018-Apr-25 09:30N 30°04' W 093°27'2 4.5
2018-Apr-25 09:00N 30°04' W 093°30'1 2.6
2018-Apr-25 08:30N 30°04' W 093°31'3 6.0
2018-Apr-25 08:01N 30°04' W 093°35'3 5.8
2018-Apr-25 07:30N 30°03' W 093°38'2 4.9
2018-Apr-25 07:00N 30°04' W 093°41'2 4.0
2018-Apr-25 06:30N 30°03' W 093°43'3 5.7
2018-Apr-25 06:00N 30°01' W 093°45'3 6.2
2018-Apr-25 05:30N 29°59' W 093°48'3 5.4
2018-Apr-25 05:00N 29°58' W 093°51'0 0.1
2018-Apr-25 04:31N 29°58' W 093°51'1 1.6
2018-Apr-25 04:00N 29°58' W 093°51'0 0.0
2018-Apr-25 03:30N 29°58' W 093°51'0 0.1
2018-Apr-25 03:00N 29°58' W 093°51'0 0.1
2018-Apr-25 02:30N 29°58' W 093°51'0 0.0
2018-Apr-25 02:00N 29°58' W 093°51'0 0.0
2018-Apr-25 01:29N 29°58' W 093°51'1 1.7
2018-Apr-25 00:59N 29°58' W 093°51'0 0.0
2018-Apr-25 00:29N 29°58' W 093°51'0 0.0
2018-Apr-24 23:59N 29°58' W 093°51'0 0.0
2018-Apr-24 23:29N 29°58' W 093°51'0 0.0
2018-Apr-24 22:59N 29°58' W 093°51'0 0.0
2018-Apr-24 22:29N 29°58' W 093°51'0 0.0
2018-Apr-24 21:59N 29°58' W 093°51'0 0.0
2018-Apr-24 21:26N 29°58' W 093°51'0 0.0
2018-Apr-24 20:59N 29°58' W 093°51'0 0.0
2018-Apr-24 20:29N 29°58' W 093°51'0 0.0
2018-Apr-24 19:59N 29°58' W 093°51'0 0.0
2018-Apr-24 19:29N 29°58' W 093°51'0 0.0
2018-Apr-24 18:59N 29°58' W 093°51'0 0.0
2018-Apr-24 18:29N 29°58' W 093°51'0 0.3
2018-Apr-24 18:00N 29°58' W 093°51'0 0.3
2018-Apr-24 17:28N 29°58' W 093°51'0 0.0
2018-Apr-24 16:58N 29°58' W 093°51'0 0.0
2018-Apr-24 16:28N 29°58' W 093°51'0 0.0
2018-Apr-24 15:59N 29°58' W 093°51'0 0.0
2018-Apr-24 15:29N 29°58' W 093°51'0 0.2
2018-Apr-24 14:58N 29°58' W 093°51'0 0.3
2018-Apr-24 14:30N 29°58' W 093°51'0 0.0
2018-Apr-24 14:00N 29°58' W 093°51'0 0.0
2018-Apr-24 13:30N 29°58' W 093°51'0 0.0
2018-Apr-24 13:00N 29°58' W 093°51'0 0.0
2018-Apr-24 12:30N 29°58' W 093°51'0 0.0
2018-Apr-24 11:58N 29°58' W 093°51'0 0.0
2018-Apr-24 11:28N 29°58' W 093°51'0 0.0
2018-Apr-24 10:58N 29°58' W 093°51'0 0.0
2018-Apr-24 10:28N 29°58' W 093°51'0 0.0
2018-Apr-24 09:58N 29°58' W 093°51'0 0.0
2018-Apr-24 09:28N 29°58' W 093°51'0 0.0
2018-Apr-24 08:58N 29°58' W 093°51'0 0.0
2018-Apr-24 08:28N 29°58' W 093°51'0 0.0
2018-Apr-24 07:58N 29°58' W 093°51'0 0.0
2018-Apr-24 07:28N 29°58' W 093°51'0 0.0
2018-Apr-24 06:58N 29°58' W 093°51'0 0.0
2018-Apr-24 06:28N 29°58' W 093°51'0 0.0
2018-Apr-24 05:58N 29°58' W 093°51'0 0.0
2018-Apr-24 05:28N 29°58' W 093°51'0 0.0
2018-Apr-24 04:58N 29°58' W 093°51'0 0.0
2018-Apr-24 04:28N 29°58' W 093°51'0 0.0
2018-Apr-24 03:58N 29°58' W 093°51'0 0.0
2018-Apr-24 03:28N 29°58' W 093°51'0 0.0
2018-Apr-24 02:58N 29°58' W 093°51'0 0.0
2018-Apr-24 02:28N 29°58' W 093°51'0 0.0
2018-Apr-24 01:58N 29°58' W 093°51'0 0.0
2018-Apr-24 01:28N 29°58' W 093°51'0 0.0
2018-Apr-24 00:58N 29°58' W 093°51'0 0.8
2018-Apr-24 00:30N 29°58' W 093°51'0 0.6
2018-Apr-24 00:00N 29°58' W 093°51'0 0.0
2018-Apr-23 23:30N 29°58' W 093°51'0 0.0
2018-Apr-23 23:00N 29°58' W 093°51'0 0.0
2018-Apr-23 22:24N 29°58' W 093°51'0 0.5
2018-Apr-23 22:00N 29°58' W 093°51'0 0.2
2018-Apr-23 21:30N 29°58' W 093°51'0 0.0
2018-Apr-23 21:00N 29°58' W 093°51'0 0.0
2018-Apr-23 20:30N 29°58' W 093°51'2 4.6
2018-Apr-23 20:00N 29°56' W 093°52'5 9.1
2018-Apr-23 19:30N 29°53' W 093°56'4 7.4
2018-Apr-23 19:00N 29°49' W 093°58'2 4.6
2018-Apr-23 18:30N 29°48' W 094°00'2 4.9
2018-Apr-23 18:00N 29°47' W 094°02'3 6.3
2018-Apr-23 17:30N 29°45' W 094°05'3 6.2
2018-Apr-23 17:00N 29°43' W 094°08'3 6.0
2018-Apr-23 16:30N 29°41' W 094°11'3 5.3
2018-Apr-23 16:00N 29°40' W 094°14'3 6.3
2018-Apr-23 15:30N 29°39' W 094°17'3 6.0
2018-Apr-23 14:57N 29°37' W 094°20'3 6.3
2018-Apr-23 14:30N 29°36' W 094°23'2 4.6
2018-Apr-23 14:00N 29°34' W 094°25'3 6.3
2018-Apr-23 13:30N 29°33' W 094°28'3 6.0
2018-Apr-23 13:00N 29°31' W 094°31'1 2.0
2018-Apr-23 12:29N 29°31' W 094°32'11 1.9
2018-Apr-23 06:58N 29°26' W 094°43'0 0.0
2018-Apr-23 06:28N 29°26' W 094°43'0 0.0
2018-Apr-23 06:00N 29°26' W 094°43'0 0.0
2018-Apr-23 05:30N 29°26' W 094°43'0 0.7
2018-Apr-23 05:00N 29°25' W 094°43'6 3.1
2018-Apr-23 02:59N 29°26' W 094°50'4 8.2
2018-Apr-23 02:30N 29°30' W 094°52'4 8.1
2018-Apr-23 02:00N 29°33' W 094°55'4 7.7
2018-Apr-23 01:30N 29°36' W 094°57'4 7.1
2018-Apr-23 01:00N 29°40' W 094°59'3 6.4
2018-Apr-23 00:30N 29°42' W 095°01'4 7.5
2018-Apr-23 00:00N 29°45' W 095°04'2 1.7
2018-Apr-22 22:36N 29°47' W 095°04'0 2.5
2018-Apr-22 22:25N 29°47' W 095°04'3 6.1
2018-Apr-22 22:00N 29°45' W 095°06'3 6.9
2018-Apr-22 21:30N 29°45' W 095°10'1 0.0
2018-Apr-22 03:25N 29°45' W 095°11'6 0.6
2018-Apr-21 17:08N 29°47' W 095°04'1 7.4
2018-Apr-21 16:59N 29°46' W 095°05'0 0.6
2018-Apr-21 16:30N 29°46' W 095°04'1 0.0
2018-Apr-20 00:05N 29°47' W 095°04'0 0.6
2018-Apr-19 23:41N 29°47' W 095°04'0 0.0
2018-Apr-19 23:29N 29°47' W 095°04'0 0.1
2018-Apr-19 21:46N 29°47' W 095°04'0 0.2
2018-Apr-19 20:53N 29°47' W 095°04'3 6.2
2018-Apr-19 20:25N 29°44' W 095°03'2 2.4
2018-Apr-19 19:39N 29°44' W 095°01'1 5.6
2018-Apr-19 19:27N 29°44' W 095°03'3 7.3
2018-Apr-19 19:00N 29°47' W 095°05'1 0.1
2018-Apr-19 14:04N 29°47' W 095°04'0 0.0
2018-Apr-18 20:19N 29°47' W 095°04'0 0.1
2018-Apr-18 15:08N 29°47' W 095°04'0 0.0
2018-Apr-18 07:07N 29°47' W 095°04'0 0.0
2018-Apr-18 06:39N 29°47' W 095°04'0 0.0
2018-Apr-18 05:01N 29°47' W 095°04'0 0.2
2018-Apr-18 05:00N 29°47' W 095°04'0 0.0
2018-Apr-18 04:27N 29°47' W 095°04'1 1.9
2018-Apr-18 03:52N 29°46' W 095°05'1 3.8
2018-Apr-18 03:30N 29°46' W 095°06'2 4.1
2018-Apr-18 02:59N 29°45' W 095°04'1 2.9
2018-Apr-18 02:30N 29°47' W 095°05'0 0.4
2018-Apr-18 02:00N 29°47' W 095°04'0 0.7
2018-Apr-18 01:29N 29°47' W 095°04'0 0.1
2018-Apr-17 23:06N 29°47' W 095°04'0 0.3
2018-Apr-17 22:51N 29°47' W 095°04'0 0.1
2018-Apr-17 22:27N 29°47' W 095°04'1 1.2
2018-Apr-17 21:54N 29°46' W 095°05'0 0.0
2018-Apr-17 21:30N 29°46' W 095°05'1 1.8
2018-Apr-17 20:59N 29°45' W 095°04'1 3.0
2018-Apr-17 20:30N 29°44' W 095°03'2 3.9
2018-Apr-17 19:57N 29°43' W 095°01'2 5.3
2018-Apr-17 19:30N 29°41' W 094°59'3 6.1
2018-Apr-17 19:00N 29°39' W 094°58'3 6.2
2018-Apr-17 18:30N 29°36' W 094°57'3 6.5
2018-Apr-17 18:00N 29°33' W 094°54'3 5.7
2018-Apr-17 17:30N 29°31' W 094°53'11 3.6
2018-Apr-17 14:24N 29°27' W 094°40'2 5.2
2018-Apr-17 14:00N 29°28' W 094°38'3 5.2
2018-Apr-17 13:23N 29°29' W 094°35'2 4.8
2018-Apr-17 12:58N 29°30' W 094°33'2 4.6
2018-Apr-17 12:28N 29°31' W 094°30'4 4.1
2018-Apr-17 11:35N 29°34' W 094°27'0 4.8
2018-Apr-17 11:29N 29°34' W 094°27'2 3.2
2018-Apr-17 10:53N 29°35' W 094°25'1 3.1
2018-Apr-17 10:27N 29°36' W 094°24'2 2.8
2018-Apr-17 09:47N 29°36' W 094°22'0 0.5
2018-Apr-17 09:18N 29°36' W 094°22'1 4.4
2018-Apr-17 09:00N 29°37' W 094°20'2 4.6
2018-Apr-17 08:30N 29°38' W 094°18'2 4.5
2018-Apr-17 08:00N 29°39' W 094°16'2 4.4
2018-Apr-17 07:30N 29°40' W 094°14'2 4.4
2018-Apr-17 07:00N 29°41' W 094°11'2 4.5
2018-Apr-17 06:30N 29°42' W 094°09'3 5.0
2018-Apr-17 06:00N 29°43' W 094°07'2 4.9
2018-Apr-17 05:30N 29°45' W 094°04'2 4.7
2018-Apr-17 05:00N 29°46' W 094°02'2 3.8
2018-Apr-17 04:30N 29°48' W 094°01'2 4.5
2018-Apr-17 04:00N 29°49' W 093°59'2 4.7
2018-Apr-17 03:30N 29°51' W 093°57'3 6.3
2018-Apr-17 03:00N 29°53' W 093°55'3 6.7
2018-Apr-17 02:30N 29°56' W 093°52'3 5.3
2018-Apr-17 02:00N 29°58' W 093°51'2 3.2
2018-Apr-17 01:30N 29°59' W 093°49'2 4.8
2018-Apr-17 01:00N 29°60' W 093°47'3 5.7
2018-Apr-17 00:30N 30°02' W 093°44'3 5.3
2018-Apr-17 00:00N 30°03' W 093°42'3 5.2
2018-Apr-16 23:28N 30°04' W 093°39'3 4.6
2018-Apr-16 22:45N 30°04' W 093°35'1 4.3
2018-Apr-16 22:30N 30°04' W 093°34'2 4.3
2018-Apr-16 22:00N 30°04' W 093°31'2 4.2
2018-Apr-16 21:30N 30°04' W 093°29'2 4.6
2018-Apr-16 21:00N 30°04' W 093°26'2 4.5
2018-Apr-16 20:30N 30°04' W 093°23'2 3.9
2018-Apr-16 20:00N 30°04' W 093°21'2 3.6
2018-Apr-16 19:30N 30°05' W 093°20'2 3.5
2018-Apr-16 19:00N 30°05' W 093°18'1 1.3
2018-Apr-16 18:30N 30°05' W 093°17'1 2.1
2018-Apr-16 18:00N 30°04' W 093°16'0 0.1
2018-Apr-16 17:30N 30°04' W 093°16'1 1.3
2018-Apr-16 17:00N 30°04' W 093°16'2 3.0
2018-Apr-16 16:30N 30°02' W 093°16'2 3.2
2018-Apr-16 16:00N 30°01' W 093°14'2 4.3
2018-Apr-16 15:30N 29°60' W 093°13'2 4.8
2018-Apr-16 15:00N 29°58' W 093°11'2 4.7
2018-Apr-16 14:30N 29°56' W 093°09'4 4.9
2018-Apr-16 13:43N 29°56' W 093°05'1 3.1
2018-Apr-16 13:30N 29°56' W 093°04'2 3.7
2018-Apr-16 12:59N 29°56' W 093°02'2 5.1
2018-Apr-16 12:30N 29°56' W 092°59'  

Dump ship's entire track history